createdAt,value
2018-08-17T00:01:08.165Z,2.27
2018-08-17T00:03:38.347Z,2.57
2018-08-17T00:06:07.915Z,2.10
2018-08-17T00:08:37.521Z,2.03
2018-08-17T00:11:07.254Z,2.90
2018-08-17T00:13:37.209Z,1.93
2018-08-17T00:16:06.897Z,2.17
2018-08-17T00:18:37.537Z,1.93
2018-08-17T00:21:07.545Z,2.70
2018-08-17T00:23:37.124Z,2.43
2018-08-17T00:26:07.551Z,2.87
2018-08-17T00:28:36.955Z,2.57
2018-08-17T00:31:13.521Z,2.50
2018-08-17T00:33:43.121Z,2.97
2018-08-17T00:36:13.414Z,2.60
2018-08-17T00:38:43.747Z,2.23
2018-08-17T00:41:13.423Z,2.23
2018-08-17T00:43:43.129Z,2.43
2018-08-17T00:46:14.262Z,2.30
2018-08-17T00:48:43.845Z,2.73
2018-08-17T00:51:13.324Z,2.53
2018-08-17T00:53:42.834Z,2.13
2018-08-17T00:56:13.432Z,2.57
2018-08-17T00:58:42.842Z,2.77
2018-08-17T01:01:12.324Z,3.17
2018-08-17T01:03:41.740Z,2.37
2018-08-17T01:06:12.771Z,2.47
2018-08-17T01:08:43.739Z,3.07
2018-08-17T01:11:14.149Z,2.53
2018-08-17T01:13:44.067Z,2.30
2018-08-17T01:16:13.601Z,2.90
2018-08-17T01:18:43.139Z,2.50
2018-08-17T01:21:13.555Z,2.33
2018-08-17T01:23:42.963Z,2.30
2018-08-17T01:26:12.436Z,3.00
2018-08-17T01:28:42.090Z,2.20
2018-08-17T01:31:11.513Z,2.70
2018-08-17T01:33:42.869Z,2.90
2018-08-17T01:36:12.301Z,2.30
2018-08-17T01:38:42.048Z,2.57
2018-08-17T01:41:11.467Z,2.77
2018-08-17T01:43:40.909Z,3.00
2018-08-17T01:46:11.284Z,2.40
2018-08-17T01:48:40.905Z,2.47
2018-08-17T01:51:11.347Z,2.30
2018-08-17T01:53:42.709Z,2.00
2018-08-17T01:56:12.740Z,2.33
2018-08-17T01:58:43.108Z,2.23
2018-08-17T02:01:12.545Z,2.00
2018-08-17T02:03:42.007Z,2.70
2018-08-17T02:06:11.456Z,2.50
2018-08-17T02:08:40.962Z,3.00
2018-08-17T02:11:10.403Z,2.60
2018-08-17T02:13:39.884Z,2.60
2018-08-17T02:16:09.310Z,2.50
2018-08-17T02:18:38.775Z,2.37
2018-08-17T02:21:09.622Z,2.83
2018-08-17T02:23:39.055Z,2.40
2018-08-17T02:26:08.507Z,2.40
2018-08-17T02:28:38.044Z,2.30
2018-08-17T02:31:07.507Z,2.33
2018-08-17T02:33:36.935Z,2.43
2018-08-17T02:36:06.467Z,3.03
2018-08-17T02:38:38.158Z,2.30
2018-08-17T02:41:07.838Z,2.57
2018-08-17T02:43:37.237Z,2.77
2018-08-17T02:46:07.325Z,3.17
2018-08-17T02:48:36.833Z,2.17
2018-08-17T02:51:06.410Z,3.00
2018-08-17T02:53:35.822Z,2.40
2018-08-17T02:56:05.399Z,2.47
2018-08-17T02:58:34.857Z,2.40
2018-08-17T03:01:04.302Z,1.80
2018-08-17T03:03:34.129Z,2.43
2018-08-17T03:06:04.130Z,2.33
2018-08-17T03:08:33.925Z,2.40
2018-08-17T03:11:03.392Z,2.43
2018-08-17T03:13:33.796Z,2.70
2018-08-17T03:16:03.348Z,2.70
2018-08-17T03:18:33.103Z,3.23
2018-08-17T03:21:02.627Z,2.80
2018-08-17T03:23:32.440Z,2.70
2018-08-17T03:26:03.108Z,2.93
2018-08-17T03:28:32.508Z,3.27
2018-08-17T03:31:02.370Z,3.40
2018-08-17T03:33:32.150Z,3.50
2018-08-17T03:36:02.133Z,3.13
2018-08-17T03:38:32.072Z,3.57
2018-08-17T03:41:01.888Z,3.13
2018-08-17T03:43:33.446Z,3.53
2018-08-17T03:46:02.920Z,3.37
2018-08-17T03:48:32.438Z,3.50
2018-08-17T03:51:01.927Z,3.40
2018-08-17T03:53:31.344Z,3.50
2018-08-17T03:56:01.182Z,3.20
2018-08-17T03:58:30.605Z,2.60
2018-08-17T04:01:00.047Z,3.40
2018-08-17T04:03:29.533Z,4.00
2018-08-17T04:06:01.266Z,4.20
2018-08-17T04:08:30.786Z,3.87
2018-08-17T04:11:00.565Z,3.30
2018-08-17T04:13:29.990Z,2.90
2018-08-17T04:15:59.798Z,3.43
2018-08-17T04:18:29.760Z,4.07
2018-08-17T04:20:59.317Z,3.77
2018-08-17T04:23:28.798Z,3.23
2018-08-17T04:25:58.228Z,3.73
2018-08-17T04:28:27.692Z,3.90
2018-08-17T04:30:57.092Z,4.00
2018-08-17T04:33:26.620Z,4.03
2018-08-17T04:35:56.676Z,3.50
2018-08-17T04:38:26.157Z,3.60
2018-08-17T04:40:55.620Z,3.53
2018-08-17T04:43:25.109Z,4.07
2018-08-17T04:45:54.605Z,4.20
2018-08-17T04:48:24.644Z,4.70
2018-08-17T04:50:54.087Z,4.03
2018-08-17T04:53:24.521Z,6.03
2018-08-17T04:55:54.385Z,4.77
2018-08-17T04:58:23.793Z,5.03
2018-08-17T05:00:53.384Z,6.10
2018-08-17T05:03:22.872Z,4.80
2018-08-17T05:05:52.988Z,5.13
2018-08-17T05:08:22.488Z,5.77
2018-08-17T05:10:51.936Z,4.50
2018-08-17T05:13:21.414Z,4.17
2018-08-17T05:15:51.702Z,4.33
2018-08-17T05:18:21.150Z,4.23
2018-08-17T05:20:51.322Z,4.50
2018-08-17T05:23:21.649Z,4.67
2018-08-17T05:25:51.373Z,5.53
2018-08-17T05:28:20.898Z,9.47
2018-08-17T05:30:50.620Z,8.77
2018-08-17T05:33:20.694Z,11.40
2018-08-17T05:35:50.220Z,12.23
2018-08-17T05:38:20.118Z,13.00
2018-08-17T05:40:49.777Z,13.67
2018-08-17T05:43:19.666Z,9.90
2018-08-17T05:45:52.553Z,7.30
2018-08-17T05:48:21.956Z,5.47
2018-08-17T05:50:51.534Z,8.10
2018-08-17T05:53:22.548Z,6.70
2018-08-17T05:55:52.004Z,7.00
2018-08-17T05:58:21.693Z,7.60
2018-08-17T06:00:52.988Z,6.20
2018-08-17T06:03:22.817Z,5.30
2018-08-17T06:05:52.311Z,6.40
2018-08-17T06:08:21.756Z,6.10
2018-08-17T06:10:51.301Z,5.20
2018-08-17T06:13:20.949Z,6.40
2018-08-17T06:15:50.805Z,5.43
2018-08-17T06:18:20.842Z,6.10
2018-08-17T06:20:50.363Z,5.20
2018-08-17T06:23:19.839Z,5.63
2018-08-17T06:25:49.250Z,5.00
2018-08-17T06:28:19.243Z,5.70
2018-08-17T06:30:49.924Z,5.83
2018-08-17T06:33:19.916Z,5.40
2018-08-17T06:35:50.057Z,5.20
2018-08-17T06:38:19.656Z,5.70
2018-08-17T06:40:49.361Z,5.57
2018-08-17T06:43:19.549Z,4.23
2018-08-17T06:45:49.055Z,6.13
2018-08-17T06:48:18.705Z,5.37
2018-08-17T06:50:48.201Z,4.60
2018-08-17T06:53:17.884Z,4.47
2018-08-17T06:55:47.355Z,3.80
2018-08-17T06:58:16.768Z,4.20
2018-08-17T07:00:46.208Z,4.07
2018-08-17T07:03:16.178Z,3.27
2018-08-17T07:05:45.633Z,4.20
2018-08-17T07:08:15.082Z,3.60
2018-08-17T07:10:44.720Z,3.67
2018-08-17T07:13:14.140Z,3.60
2018-08-17T07:15:45.288Z,3.20
2018-08-17T07:18:15.702Z,3.90
2018-08-17T07:20:46.124Z,2.70
2018-08-17T07:23:15.586Z,2.63
2018-08-17T07:25:45.460Z,4.10
2018-08-17T07:28:15.098Z,3.70
2018-08-17T07:30:44.676Z,2.70
2018-08-17T07:33:14.278Z,3.97
2018-08-17T07:35:47.548Z,3.50
2018-08-17T07:38:17.173Z,3.30
2018-08-17T07:40:46.604Z,3.70
2018-08-17T07:43:16.090Z,3.43
2018-08-17T07:45:45.580Z,4.03
2018-08-17T07:48:15.180Z,3.13
2018-08-17T07:50:44.933Z,3.57
2018-08-17T07:53:16.373Z,3.70
2018-08-17T07:55:45.780Z,3.30
2018-08-17T07:58:17.323Z,3.37
2018-08-17T08:00:46.842Z,3.57
2018-08-17T08:03:16.262Z,3.70
2018-08-17T08:05:45.868Z,3.40
2018-08-17T08:08:15.441Z,3.30
2018-08-17T08:10:44.849Z,2.67
2018-08-17T08:13:14.325Z,2.60
2018-08-17T08:15:45.229Z,3.13
2018-08-17T08:18:14.649Z,2.37
2018-08-17T08:20:45.325Z,2.33
2018-08-17T08:23:25.219Z,2.90
2018-08-17T08:25:55.129Z,2.60
2018-08-17T08:28:24.758Z,2.70
2018-08-17T08:30:54.236Z,2.60
2018-08-17T08:33:25.740Z,3.60
2018-08-17T08:35:56.389Z,3.00
2018-08-17T08:38:26.450Z,3.40
2018-08-17T08:41:00.650Z,2.20
2018-08-17T08:43:30.151Z,3.03
2018-08-17T08:45:59.596Z,2.70
2018-08-17T08:48:30.404Z,2.77
2018-08-17T08:50:59.992Z,3.07
2018-08-17T08:53:29.460Z,3.47
2018-08-17T08:55:58.912Z,2.60
2018-08-17T08:58:29.504Z,3.07
2018-08-17T09:01:00.507Z,2.90
2018-08-17T09:03:30.176Z,3.27
2018-08-17T09:06:08.803Z,2.87
2018-08-17T09:08:38.170Z,2.83
2018-08-17T09:11:07.837Z,2.70
2018-08-17T09:13:38.617Z,2.87
2018-08-17T09:16:17.730Z,2.63
2018-08-17T09:18:47.933Z,2.27
2018-08-17T09:21:17.692Z,2.37
2018-08-17T09:23:47.850Z,2.20
2018-08-17T09:26:18.336Z,2.30
2018-08-17T09:28:47.701Z,2.60
2018-08-17T09:31:18.071Z,3.23
2018-08-17T09:33:47.687Z,2.60
2018-08-17T09:36:17.202Z,2.40
2018-08-17T09:38:46.640Z,2.57
2018-08-17T09:41:16.123Z,2.30
2018-08-17T09:43:45.965Z,2.27
2018-08-17T09:46:15.322Z,2.70
2018-08-17T09:48:44.793Z,3.13
2018-08-17T09:51:16.843Z,2.20
2018-08-17T09:53:49.892Z,2.30
2018-08-17T09:56:21.235Z,2.23
2018-08-17T09:58:51.662Z,2.20
2018-08-17T10:01:26.821Z,2.00
2018-08-17T10:04:02.168Z,2.03
2018-08-17T10:06:42.170Z,2.10
2018-08-17T10:09:19.714Z,2.27
2018-08-17T10:11:51.003Z,1.87
2018-08-17T10:14:21.514Z,1.70
2018-08-17T10:16:51.565Z,2.20
2018-08-17T10:19:20.989Z,1.97
2018-08-17T10:21:53.005Z,2.00
2018-08-17T10:24:25.084Z,2.20
2018-08-17T10:26:56.037Z,1.80
2018-08-17T10:29:26.180Z,1.63
2018-08-17T10:31:57.060Z,1.77
2018-08-17T10:34:27.350Z,2.17
2018-08-17T10:36:58.160Z,1.63
2018-08-17T10:39:30.570Z,2.00
2018-08-17T10:42:00.272Z,1.90
2018-08-17T10:44:37.379Z,1.40
2018-08-17T10:47:08.697Z,1.97
2018-08-17T10:49:38.260Z,1.90
2018-08-17T10:52:08.909Z,1.90
2018-08-17T10:54:38.365Z,1.47
2018-08-17T10:57:08.134Z,1.53
2018-08-17T10:59:38.095Z,2.53
2018-08-17T11:02:08.144Z,1.97
2018-08-17T11:04:38.854Z,1.63
2018-08-17T11:07:08.949Z,1.83
2018-08-17T11:09:38.419Z,1.90
2018-08-17T11:12:07.895Z,2.03
2018-08-17T11:14:37.609Z,2.60
2018-08-17T11:17:07.769Z,2.20
2018-08-17T11:19:37.912Z,2.20
2018-08-17T11:22:07.640Z,1.70
2018-08-17T11:24:37.013Z,1.90
2018-08-17T11:27:06.899Z,1.80
2018-08-17T11:29:36.312Z,1.97
2018-08-17T11:32:05.700Z,1.60
2018-08-17T11:34:35.152Z,1.90
2018-08-17T11:37:04.620Z,2.00
2018-08-17T11:39:34.085Z,2.00
2018-08-17T11:42:03.493Z,1.90
2018-08-17T11:44:32.867Z,1.50
2018-08-17T11:47:02.259Z,1.90
2018-08-17T11:49:31.862Z,2.07
2018-08-17T11:52:01.290Z,1.60
2018-08-17T11:54:30.726Z,2.07
2018-08-17T11:57:00.185Z,1.43
2018-08-17T11:59:29.647Z,1.70
2018-08-17T12:01:59.088Z,2.10
2018-08-17T12:04:28.867Z,1.60
2018-08-17T12:06:58.280Z,1.70
2018-08-17T12:09:27.632Z,2.00
2018-08-17T12:11:57.029Z,1.67
2018-08-17T12:14:26.472Z,1.90
2018-08-17T12:16:55.925Z,1.93
2018-08-17T12:19:25.333Z,1.87
2018-08-17T12:21:58.057Z,1.70
2018-08-17T12:24:27.593Z,1.60
2018-08-17T12:26:57.095Z,2.40
2018-08-17T12:29:27.211Z,2.10
2018-08-17T12:31:56.580Z,1.80
2018-08-17T12:34:26.187Z,1.80
2018-08-17T12:36:55.597Z,1.87
2018-08-17T12:39:25.711Z,2.27
2018-08-17T12:41:55.768Z,2.03
2018-08-17T12:44:25.131Z,1.73
2018-08-17T12:46:55.436Z,2.93
2018-08-17T12:49:25.141Z,2.00
2018-08-17T12:51:54.650Z,2.77
2018-08-17T12:54:28.285Z,2.00
2018-08-17T12:56:58.252Z,1.70
2018-08-17T12:59:27.753Z,1.67
2018-08-17T13:01:57.246Z,2.00
2018-08-17T13:04:27.508Z,1.50
2018-08-17T13:06:57.356Z,1.90
2018-08-17T13:09:27.076Z,2.17
2018-08-17T13:12:00.646Z,1.70
2018-08-17T13:14:30.574Z,2.10
2018-08-17T13:17:01.102Z,1.80
2018-08-17T13:19:31.289Z,1.80
2018-08-17T13:22:00.749Z,1.87
2018-08-17T13:24:30.254Z,1.63
2018-08-17T13:26:59.637Z,2.23
2018-08-17T13:29:29.113Z,1.70
2018-08-17T13:31:58.526Z,1.80
2018-08-17T13:34:27.918Z,2.10
2018-08-17T13:36:57.376Z,1.50
2018-08-17T13:39:26.752Z,1.43
2018-08-17T13:41:56.150Z,1.67
2018-08-17T13:44:25.558Z,1.60
2018-08-17T13:46:54.974Z,1.67
2018-08-17T13:49:24.368Z,2.00
2018-08-17T13:51:53.804Z,1.70
2018-08-17T13:54:23.313Z,1.70
2018-08-17T13:56:52.712Z,2.00
2018-08-17T13:59:22.780Z,1.67
2018-08-17T14:01:52.190Z,1.70
2018-08-17T14:04:21.556Z,1.90
2018-08-17T14:06:50.937Z,1.63
2018-08-17T14:09:20.305Z,1.57
2018-08-17T14:11:49.694Z,1.70
2018-08-17T14:14:19.144Z,1.97
2018-08-17T14:16:49.597Z,2.33
2018-08-17T14:19:18.976Z,1.53
2018-08-17T14:21:48.369Z,1.80
2018-08-17T14:24:18.058Z,2.33
2018-08-17T14:26:47.673Z,1.90
2018-08-17T14:29:17.099Z,1.77
2018-08-17T14:31:46.636Z,1.77
2018-08-17T14:34:16.099Z,1.43
2018-08-17T14:36:45.672Z,1.57
2018-08-17T14:39:15.865Z,1.77
2018-08-17T14:41:53.362Z,1.47
2018-08-17T14:44:22.941Z,1.77
2018-08-17T14:46:53.040Z,1.93
2018-08-17T14:49:22.635Z,2.00
2018-08-17T14:51:53.090Z,1.40
2018-08-17T14:54:23.258Z,1.67
2018-08-17T14:56:53.126Z,1.63
2018-08-17T14:59:22.606Z,2.67
2018-08-17T15:01:52.034Z,2.00
2018-08-17T15:04:21.491Z,1.93
2018-08-17T15:06:51.332Z,2.67
2018-08-17T15:09:20.781Z,1.53
2018-08-17T15:11:50.169Z,1.93
2018-08-17T15:14:19.617Z,1.73
2018-08-17T15:16:49.208Z,1.57
2018-08-17T15:19:18.668Z,1.70
2018-08-17T15:21:48.635Z,2.00
2018-08-17T15:24:19.023Z,1.70
2018-08-17T15:26:48.412Z,2.07
2018-08-17T15:29:17.818Z,1.60
2018-08-17T15:31:47.184Z,2.30
2018-08-17T15:34:16.768Z,2.00
2018-08-17T15:36:46.233Z,1.57
2018-08-17T15:39:15.606Z,1.90
2018-08-17T15:41:46.141Z,1.93
2018-08-17T15:44:20.756Z,1.83
2018-08-17T15:46:50.430Z,2.00
2018-08-17T15:49:39.040Z,2.00
2018-08-17T15:52:12.249Z,2.60
2018-08-17T15:54:41.691Z,2.10
2018-08-17T15:57:11.059Z,2.07
2018-08-17T15:59:40.461Z,1.60
2018-08-17T16:02:10.032Z,1.60
2018-08-17T16:04:39.440Z,1.80
2018-08-17T16:07:09.294Z,1.50
2018-08-17T16:09:38.696Z,1.93
2018-08-17T16:12:08.608Z,2.00
2018-08-17T16:14:38.083Z,2.20
2018-08-17T16:17:07.540Z,2.20
2018-08-17T16:19:36.956Z,2.13
2018-08-17T16:22:06.424Z,2.13
2018-08-17T16:24:36.441Z,1.67
2018-08-17T16:27:06.040Z,2.70
2018-08-17T16:29:35.459Z,1.50
2018-08-17T16:32:04.936Z,1.93
2018-08-17T16:34:34.452Z,1.67
2018-08-17T16:37:03.936Z,1.97
2018-08-17T16:39:39.258Z,1.90
2018-08-17T16:42:10.268Z,1.70
2018-08-17T16:44:39.735Z,2.73
2018-08-17T16:47:09.743Z,1.77
2018-08-17T16:49:39.156Z,1.30
2018-08-17T16:52:09.288Z,1.73
2018-08-17T16:54:38.725Z,1.97
2018-08-17T16:57:08.313Z,2.00
2018-08-17T16:59:38.945Z,2.93
2018-08-17T17:02:08.352Z,2.47
2018-08-17T17:04:40.549Z,2.30
2018-08-17T17:07:11.309Z,2.20
2018-08-17T17:09:41.099Z,2.10
2018-08-17T17:12:16.080Z,1.97
2018-08-17T17:14:46.828Z,1.93
2018-08-17T17:17:16.924Z,1.90
2018-08-17T17:19:46.348Z,2.07
2018-08-17T17:22:17.536Z,3.10
2018-08-17T17:24:46.994Z,1.73
2018-08-17T17:27:19.240Z,2.03
2018-08-17T17:29:49.781Z,2.57
2018-08-17T17:32:19.792Z,2.67
2018-08-17T17:34:50.306Z,2.17
2018-08-17T17:37:19.877Z,2.27
2018-08-17T17:39:49.352Z,2.37
2018-08-17T17:42:18.790Z,3.03
2018-08-17T17:44:48.205Z,2.07
2018-08-17T17:47:17.675Z,2.67
2018-08-17T17:49:47.260Z,1.93
2018-08-17T17:52:16.683Z,2.90
2018-08-17T17:54:46.724Z,3.40
2018-08-17T17:57:16.275Z,3.20
2018-08-17T17:59:56.498Z,2.60
2018-08-17T18:02:26.780Z,2.00
2018-08-17T18:04:56.158Z,3.17
2018-08-17T18:07:33.828Z,2.50
2018-08-17T18:10:04.394Z,2.00
2018-08-17T18:12:33.784Z,2.30
2018-08-17T18:15:06.457Z,3.10
2018-08-17T18:17:35.885Z,4.20
2018-08-17T18:20:13.379Z,3.97
2018-08-17T18:22:42.825Z,3.60
2018-08-17T18:25:18.647Z,4.10
2018-08-17T18:27:49.154Z,3.70
2018-08-17T18:30:18.606Z,2.80
2018-08-17T18:32:49.824Z,2.67
2018-08-17T18:35:19.445Z,2.30
2018-08-17T18:37:49.009Z,2.90
2018-08-17T18:40:18.524Z,2.70
2018-08-17T18:42:47.929Z,2.50
2018-08-17T18:45:17.313Z,3.10
2018-08-17T18:47:46.716Z,1.90
2018-08-17T18:50:16.142Z,3.80
2018-08-17T18:52:45.664Z,3.73
2018-08-17T18:55:16.150Z,3.13
2018-08-17T18:57:45.609Z,2.90
2018-08-17T19:00:15.272Z,2.60
2018-08-17T19:02:44.650Z,3.23
2018-08-17T19:05:16.070Z,2.43
2018-08-17T19:07:45.536Z,2.80
2018-08-17T19:10:19.872Z,2.87
2018-08-17T19:12:49.469Z,2.70
2018-08-17T19:15:18.913Z,2.90
2018-08-17T19:17:48.509Z,3.27
2018-08-17T19:20:17.971Z,3.40
2018-08-17T19:22:47.388Z,3.20
2018-08-17T19:25:17.265Z,2.47
2018-08-17T19:27:46.750Z,3.57
2018-08-17T19:30:26.318Z,3.27
2018-08-17T19:32:57.169Z,3.43
2018-08-17T19:35:27.042Z,3.47
2018-08-17T19:37:56.795Z,4.23
2018-08-17T19:40:26.347Z,3.77
2018-08-17T19:42:56.019Z,3.20
2018-08-17T19:45:25.493Z,3.70
2018-08-17T19:47:54.926Z,2.70
2018-08-17T19:50:24.396Z,3.40
2018-08-17T19:52:53.916Z,2.83
2018-08-17T19:55:23.497Z,2.93
2018-08-17T19:57:52.863Z,3.30
2018-08-17T20:00:22.997Z,3.67
2018-08-17T20:02:52.413Z,3.27
2018-08-17T20:05:21.800Z,2.40
2018-08-17T20:07:51.318Z,2.63
2018-08-17T20:10:20.824Z,3.03
2018-08-17T20:12:50.284Z,3.60
2018-08-17T20:15:19.734Z,3.10
2018-08-17T20:17:51.312Z,3.17
2018-08-17T20:20:20.750Z,3.17
2018-08-17T20:22:50.202Z,3.20
2018-08-17T20:25:20.010Z,2.50
2018-08-17T20:27:49.453Z,2.73
2018-08-17T20:30:20.291Z,3.27
2018-08-17T20:32:49.828Z,3.57
2018-08-17T20:35:19.250Z,3.13
2018-08-17T20:37:51.152Z,2.47
2018-08-17T20:40:21.077Z,2.73
2018-08-17T20:42:50.890Z,2.80
2018-08-17T20:45:22.969Z,3.67
2018-08-17T20:47:52.395Z,3.33
2018-08-17T20:50:21.819Z,2.77
2018-08-17T20:52:56.551Z,2.60
2018-08-17T20:55:27.712Z,3.53
2018-08-17T20:57:58.167Z,3.27
2018-08-17T21:00:28.847Z,3.20
2018-08-17T21:02:58.482Z,3.13
2018-08-17T21:05:27.877Z,3.10
2018-08-17T21:07:57.614Z,2.57
2018-08-17T21:10:27.309Z,3.63
2018-08-17T21:12:56.806Z,3.63
2018-08-17T21:15:26.741Z,3.43
2018-08-17T21:17:56.231Z,2.80
2018-08-17T21:20:25.790Z,2.87
2018-08-17T21:22:55.209Z,3.03
2018-08-17T21:25:24.602Z,3.10
2018-08-17T21:27:54.174Z,3.17
2018-08-17T21:30:24.181Z,3.03
2018-08-17T21:32:53.641Z,2.70
2018-08-17T21:35:23.057Z,2.70
2018-08-17T21:37:53.576Z,2.47
2018-08-17T21:40:27.959Z,2.90
2018-08-17T21:42:58.558Z,2.90
2018-08-17T21:45:28.032Z,3.57
2018-08-17T21:47:57.630Z,3.10
2018-08-17T21:50:27.224Z,3.13
2018-08-17T21:52:56.684Z,2.93
2018-08-17T21:55:26.819Z,3.23
2018-08-17T21:57:56.367Z,3.50
2018-08-17T22:00:32.971Z,2.93
2018-08-17T22:03:04.929Z,2.90
2018-08-17T22:05:34.911Z,2.53
2018-08-17T22:08:05.294Z,2.50
2018-08-17T22:10:35.140Z,2.90
2018-08-17T22:13:05.602Z,2.77
2018-08-17T22:15:35.022Z,3.30
2018-08-17T22:18:04.549Z,2.83
2018-08-17T22:20:33.930Z,2.40
2018-08-17T22:23:03.407Z,2.83
2018-08-17T22:25:32.860Z,2.47
2018-08-17T22:28:02.872Z,3.03
2018-08-17T22:30:32.374Z,3.17
2018-08-17T22:33:02.325Z,2.70
2018-08-17T22:35:31.930Z,2.90
2018-08-17T22:38:01.513Z,2.97
2018-08-17T22:40:30.950Z,3.43
2018-08-17T22:43:00.793Z,2.40
2018-08-17T22:45:30.190Z,3.33
2018-08-17T22:48:00.508Z,3.53
2018-08-17T22:50:30.873Z,2.83
2018-08-17T22:53:02.382Z,2.63
2018-08-17T22:55:31.880Z,3.13
2018-08-17T22:58:01.961Z,3.07
2018-08-17T23:00:31.752Z,2.77
2018-08-17T23:03:02.748Z,2.50
2018-08-17T23:05:36.049Z,3.00
2018-08-17T23:08:05.704Z,3.20
2018-08-17T23:10:35.111Z,3.00
2018-08-17T23:13:04.920Z,3.50
2018-08-17T23:15:35.049Z,2.90
2018-08-17T23:18:04.656Z,2.80
2018-08-17T23:20:37.399Z,3.93
2018-08-17T23:23:07.636Z,3.33
2018-08-17T23:25:37.111Z,3.60
2018-08-17T23:28:06.892Z,3.63
2018-08-17T23:30:36.643Z,3.67
2018-08-17T23:33:06.271Z,3.60
2018-08-17T23:35:35.682Z,4.37
2018-08-17T23:38:05.713Z,3.53
2018-08-17T23:40:35.134Z,2.80
2018-08-17T23:43:04.732Z,3.87
2018-08-17T23:45:34.212Z,3.80
2018-08-17T23:48:03.683Z,3.17
2018-08-17T23:50:34.177Z,3.50
2018-08-17T23:53:03.612Z,3.30
2018-08-17T23:55:33.032Z,3.33
2018-08-17T23:58:02.416Z,4.17
